Time;durP1;ratioP1;P1;durP2;ratioP2;P2;SDS_P1;SDS_P2;PMS_P1;PMS_P2;Temp;Humidity;BMP_temperature;BMP_pressure;BME280_temperature;BME280_humidity;BME280_pressure;Samples;Min_cycle;Max_cycle;Signal;HPM_P1;HPM_P2
2023/01/24 00:00:19;;;;;;;0.10;0.10;;;;;;;11.75;47.00;96082.19;4989419;28;20524;-62
2023/01/24 00:02:46;;;;;;;0.40;0.40;;;;;;;11.76;47.28;96080.38;4989234;28;20222;-62
2023/01/24 00:05:12;;;;;;;0.00;0.00;;;;;;;11.74;47.54;96077.19;4988066;28;20568;-64
2023/01/24 00:07:39;;;;;;;0.00;0.00;;;;;;;11.95;46.66;96072.06;4988192;28;20441;-62
2023/01/24 00:10:07;;;;;;;0.00;0.00;;;;;;;11.77;47.19;96081.97;4988138;28;20194;-63
2023/01/24 00:12:35;;;;;;;0.10;0.10;;;;;;;11.83;47.11;96079.22;4988458;28;20473;-61
2023/01/24 00:15:02;;;;;;;0.20;0.20;;;;;;;11.82;47.08;96080.25;4988485;28;20217;-63
2023/01/24 00:17:29;;;;;;;0.40;0.40;;;;;;;11.66;47.52;96088.84;4989334;28;20222;-64
2023/01/24 00:19:55;;;;;;;0.10;0.10;;;;;;;11.84;47.39;96087.88;4988356;28;20504;-64
2023/01/24 00:22:22;;;;;;;0.00;0.00;;;;;;;11.94;46.68;96075.75;4989442;28;20721;-65
2023/01/24 00:24:49;;;;;;;0.13;0.13;;;;;;;11.91;46.37;96088.53;4988663;28;20200;-62
2023/01/24 00:27:16;;;;;;;0.00;0.00;;;;;;;11.82;47.21;96097.81;4989643;28;20457;-64
2023/01/24 00:29:43;;;;;;;0.00;0.00;;;;;;;11.41;47.90;96096.19;4988499;28;20520;-63
2023/01/24 00:32:10;;;;;;;0.60;0.60;;;;;;;11.48;47.90;96086.34;4950235;28;1121737;-66
2023/01/24 00:34:38;;;;;;;0.65;0.65;;;;;;;11.28;48.01;96096.41;4989722;28;20213;-67
2023/01/24 00:37:05;;;;;;;0.20;0.20;;;;;;;11.19;48.64;96084.69;4988423;28;20198;-64
2023/01/24 00:39:32;;;;;;;0.63;0.50;;;;;;;11.34;47.56;96087.63;4989982;28;20198;-63
2023/01/24 00:41:59;;;;;;;0.00;0.00;;;;;;;11.20;48.22;96084.44;4987867;28;20868;-66
2023/01/24 00:44:26;;;;;;;0.20;0.20;;;;;;;11.28;47.99;96091.16;4989558;28;20195;-62
2023/01/24 00:46:53;;;;;;;0.00;0.00;;;;;;;11.16;48.41;96087.78;4987888;28;20241;-65
2023/01/24 00:49:20;;;;;;;0.00;0.00;;;;;;;10.92;49.21;96081.75;4988265;28;20461;-65
2023/01/24 00:51:48;;;;;;;0.00;0.00;;;;;;;11.26;48.25;96087.19;4988287;28;20697;-63
2023/01/24 00:54:15;;;;;;;0.40;0.40;;;;;;;11.17;48.67;96094.59;4975077;28;20238;-64
2023/01/24 00:56:42;;;;;;;0.00;0.00;;;;;;;11.15;48.50;96086.97;4989264;28;20446;-63
2023/01/24 00:59:09;;;;;;;0.00;0.00;;;;;;;11.24;48.17;96093.47;4987579;28;20302;-64
2023/01/24 01:01:36;;;;;;;0.00;0.00;;;;;;;11.08;48.61;96086.28;4976444;28;20199;-64
2023/01/24 01:04:02;;;;;;;0.15;0.15;;;;;;;10.79;49.00;96096.88;4985913;28;20226;-62
2023/01/24 01:06:29;;;;;;;0.00;0.00;;;;;;;10.80;48.73;96103.75;4989209;28;20202;-62
2023/01/24 01:08:56;;;;;;;0.00;0.00;;;;;;;11.12;48.09;96095.31;4989722;28;20183;-61
2023/01/24 01:11:23;;;;;;;0.00;0.00;;;;;;;11.18;48.05;96090.97;4988908;28;20210;-62
2023/01/24 01:13:54;;;;;;;0.15;0.15;;;;;;;10.42;49.83;96104.13;4989101;28;20720;-63
2023/01/24 01:16:22;;;;;;;0.35;0.35;;;;;;;10.69;49.29;96097.44;4986926;28;20203;-63
2023/01/24 01:18:53;;;;;;;0.50;0.50;;;;;;;10.78;48.56;96080.38;4988386;28;20666;-64
2023/01/24 01:21:21;;;;;;;0.73;0.73;;;;;;;11.15;47.95;96097.47;4974088;28;20805;-61
2023/01/24 01:23:48;;;;;;;0.00;0.00;;;;;;;11.09;47.84;96094.97;4989118;28;20903;-63
2023/01/24 01:26:17;;;;;;;0.28;0.28;;;;;;;11.17;47.60;96095.41;4988689;28;20197;-64
2023/01/24 01:28:45;;;;;;;0.00;0.00;;;;;;;10.78;48.53;96096.09;4988849;28;20708;-64
2023/01/24 01:31:13;;;;;;;0.00;0.00;;;;;;;10.57;49.23;96099.25;4987949;28;20230;-63
2023/01/24 01:33:42;;;;;;;0.32;0.10;;;;;;;10.35;49.60;96106.03;4987239;28;20236;-62
2023/01/24 01:36:09;;;;;;;0.00;0.00;;;;;;;10.62;48.79;96096.75;4988052;28;20206;-64
2023/01/24 01:38:37;;;;;;;1.25;0.52;;;;;;;10.47;49.13;96103.47;4987083;28;20604;-61
2023/01/24 01:41:04;;;;;;;0.00;0.00;;;;;;;10.69;48.93;96096.66;4988081;28;20202;-65
2023/01/24 01:43:31;;;;;;;0.65;0.65;;;;;;;10.84;48.52;96095.19;4988789;28;20385;-62
2023/01/24 01:46:23;;;;;;;0.00;0.00;;;;;;;10.87;48.17;96094.75;4986392;28;20202;-63
2023/01/24 01:48:55;;;;;;;1.75;1.42;;;;;;;10.85;48.51;96088.94;4976420;28;20214;-63
2023/01/24 01:51:27;;;;;;;0.00;0.00;;;;;;;11.05;47.76;96089.38;4967260;28;20207;-64
2023/01/24 01:54:02;;;;;;;0.00;0.00;;;;;;;10.73;48.44;96095.97;4968299;28;20258;-63
2023/01/24 01:56:45;;;;;;;0.00;0.00;;;;;;;11.20;47.99;96086.28;4968136;28;20207;-63
2023/01/24 01:59:26;;;;;;;0.50;0.50;;;;;;;10.86;48.28;96087.09;4968008;28;20203;-66
2023/01/24 02:01:54;;;;;;;0.00;0.00;;;;;;;11.03;47.57;96088.00;4981196;28;20202;-66
2023/01/24 02:04:35;;;;;;;0.08;0.08;;;;;;;10.83;47.91;96087.53;4967417;28;20207;-61
2023/01/24 02:07:21;;;;;;;0.22;0.15;;;;;;;10.98;47.61;96085.28;4969695;28;20199;-63
2023/01/24 02:09:52;;;;;;;0.00;0.00;;;;;;;10.77;48.12;96089.25;4985909;28;20216;-63
2023/01/24 02:12:32;;;;;;;0.00;0.00;;;;;;;10.77;48.22;96085.81;4987051;28;20199;-62
2023/01/24 02:17:51;;;;;;;0.00;0.00;;;;;;;10.78;48.19;96090.88;4976354;28;20589;-62
2023/01/24 02:20:38;;;;;;;0.00;0.00;;;;;;;10.90;47.98;96086.41;4987171;28;20207;-65
2023/01/24 02:23:18;;;;;;;0.10;0.10;;;;;;;10.80;48.10;96088.78;4988747;28;20612;-62
2023/01/24 02:26:06;;;;;;;0.65;0.63;;;;;;;10.65;48.17;96085.84;4987047;28;20218;-63
2023/01/24 02:28:34;;;;;;;0.45;0.30;;;;;;;10.54;48.94;96089.25;4987009;28;20535;-66
2023/01/24 02:31:01;;;;;;;0.00;0.00;;;;;;;10.83;48.29;96082.31;4988132;28;20573;-62
2023/01/24 02:33:29;;;;;;;0.47;0.47;;;;;;;10.39;49.25;96086.25;4990311;28;20304;-63
2023/01/24 02:36:25;;;;;;;0.00;0.00;;;;;;;10.75;48.54;96083.44;4990264;28;20252;-64
2023/01/24 02:38:58;;;;;;;0.55;0.55;;;;;;;10.82;48.62;96089.38;4981708;28;20198;-62
2023/01/24 02:41:29;;;;;;;0.00;0.00;;;;;;;11.20;47.59;96078.41;4991276;28;20973;-64
2023/01/24 02:44:01;;;;;;;0.10;0.10;;;;;;;10.94;47.94;96078.88;4990420;28;20205;-63
2023/01/24 02:46:35;;;;;;;0.00;0.00;;;;;;;11.23;47.68;96089.25;4972047;28;20283;-63
2023/01/24 02:49:07;;;;;;;0.00;0.00;;;;;;;11.01;48.07;96088.25;4984438;28;20186;-64
2023/01/24 02:54:20;;;;;;;0.00;0.00;;;;;;;10.69;48.16;96076.47;4989962;28;20262;-65
2023/01/24 02:59:33;;;;;;;0.32;0.30;;;;;;;10.85;48.22;96078.44;4970729;28;20211;-61
2023/01/24 03:02:00;;;;;;;0.00;0.00;;;;;;;10.86;48.40;96076.59;4969395;28;20211;-63
2023/01/24 03:04:27;;;;;;;0.00;0.00;;;;;;;10.62;48.41;96083.66;4982310;28;20218;-62
2023/01/24 03:06:54;;;;;;;0.30;0.30;;;;;;;10.94;47.89;96078.88;4985292;28;20202;-65
2023/01/24 03:09:33;;;;;;;0.00;0.00;;;;;;;10.91;47.94;96079.34;4982214;28;20207;-64
2023/01/24 03:34:45;;;;;;;0.20;0.20;;;;;;;10.08;48.73;96053.22;4977731;28;20321;-63
2023/01/24 03:40:11;;;;;;;0.10;0.10;;;;;;;10.40;48.46;96077.34;4988993;28;20640;-62
2023/01/24 03:42:46;;;;;;;0.00;0.00;;;;;;;10.48;48.03;96069.16;4988262;28;20202;-64
2023/01/24 03:45:34;;;;;;;0.68;0.17;;;;;;;10.79;47.48;96066.22;4974311;28;20231;-64
2023/01/24 03:48:09;;;;;;;0.00;0.00;;;;;;;10.58;47.94;96064.19;4987180;28;20289;-63
2023/01/24 03:53:31;;;;;;;0.00;0.00;;;;;;;10.95;47.48;96073.41;4992714;28;20633;-62
2023/01/24 03:56:00;;;;;;;0.40;0.40;;;;;;;10.87;47.21;96072.97;4993068;28;20206;-62
2023/01/24 03:58:33;;;;;;;3.60;0.82;;;;;;;10.92;46.97;96076.50;4989011;28;20292;-63
2023/01/24 04:01:04;;;;;;;0.00;0.00;;;;;;;10.89;47.33;96071.69;4969235;28;20302;-64
2023/01/24 04:03:50;;;;;;;0.10;0.10;;;;;;;10.66;47.89;96048.09;4986554;28;20197;-66
2023/01/24 04:06:18;;;;;;;0.08;0.08;;;;;;;10.90;47.19;96073.31;4988806;28;20210;-62
2023/01/24 04:08:45;;;;;;;0.00;0.00;;;;;;;10.89;47.46;96063.81;4975778;28;20207;-66
2023/01/24 04:11:12;;;;;;;0.03;0.03;;;;;;;10.85;47.36;96070.56;4989615;28;20195;-65
2023/01/24 04:13:39;;;;;;;0.45;0.45;;;;;;;10.95;47.24;96070.78;4988810;28;20313;-66
2023/01/24 04:16:07;;;;;;;0.00;0.00;;;;;;;10.78;47.25;96064.66;4989528;28;20205;-63
2023/01/24 04:18:52;;;;;;;0.10;0.10;;;;;;;10.89;46.99;96071.69;4989944;28;20353;-65
2023/01/24 04:21:22;;;;;;;0.00;0.00;;;;;;;11.02;46.77;96060.97;4974582;28;20697;-63
2023/01/24 04:23:49;;;;;;;0.10;0.10;;;;;;;10.90;47.20;96067.25;4988680;28;20508;-63
2023/01/24 04:26:16;;;;;;;0.00;0.00;;;;;;;10.85;47.21;96065.31;4988677;28;20214;-63
2023/01/24 04:28:43;;;;;;;0.50;0.50;;;;;;;10.74;47.39;96062.69;4969711;28;20191;-65
2023/01/24 04:31:10;;;;;;;0.00;0.00;;;;;;;10.72;47.26;96060.31;4968073;28;20643;-64
2023/01/24 04:33:57;;;;;;;0.90;0.90;;;;;;;10.77;47.52;96062.22;4979352;28;20331;-64
2023/01/24 04:36:27;;;;;;;0.00;0.00;;;;;;;10.79;47.36;96062.81;4975081;28;20202;-66
2023/01/24 04:38:55;;;;;;;0.00;0.00;;;;;;;10.46;47.57;96065.97;4978621;28;20194;-63
2023/01/24 04:41:27;;;;;;;0.10;0.10;;;;;;;10.73;47.26;96068.97;4971595;28;20371;-64
2023/01/24 04:43:54;;;;;;;0.10;0.10;;;;;;;10.27;48.34;96072.31;4988320;28;20202;-64
2023/01/24 04:46:21;;;;;;;0.05;0.05;;;;;;;10.39;47.63;96075.75;4987787;28;20557;-67
2023/01/24 04:48:54;;;;;;;0.00;0.00;;;;;;;10.42;47.68;96064.03;4989764;28;20195;-63
2023/01/24 04:51:27;;;;;;;0.00;0.00;;;;;;;10.64;47.24;96076.34;4968612;28;20321;-63
2023/01/24 04:53:54;;;;;;;0.00;0.00;;;;;;;10.36;48.06;96081.47;4967951;28;20222;-64
2023/01/24 04:56:25;;;;;;;0.00;0.00;;;;;;;10.29;47.99;96080.75;4974627;28;20199;-62
2023/01/24 04:58:54;;;;;;;0.00;0.00;;;;;;;10.47;47.90;96083.31;4988146;28;20265;-64
2023/01/24 05:01:21;;;;;;;0.00;0.00;;;;;;;10.51;47.57;96087.03;4987190;28;20202;-61
2023/01/24 05:04:01;;;;;;;0.00;0.00;;;;;;;10.40;48.05;96082.59;4988168;28;20194;-63
2023/01/24 05:06:31;;;;;;;0.35;0.35;;;;;;;10.58;47.58;96079.91;4987604;28;20221;-65
2023/01/24 05:08:58;;;;;;;0.00;0.00;;;;;;;10.56;47.24;96092.44;4987901;28;20211;-64
2023/01/24 05:11:35;;;;;;;0.00;0.00;;;;;;;10.64;47.33;96084.22;4987287;28;20277;-62
2023/01/24 05:14:04;;;;;;;0.05;0.05;;;;;;;10.43;47.37;96079.53;4975028;28;20214;-63
2023/01/24 05:16:30;;;;;;;0.10;0.10;;;;;;;10.66;46.91;96084.00;4986327;28;20293;-65
2023/01/24 05:18:57;;;;;;;0.00;0.00;;;;;;;10.64;46.84;96089.47;4987780;28;20289;-68
2023/01/24 05:21:25;;;;;;;0.00;0.00;;;;;;;10.54;46.98;96094.47;4968502;28;20651;-65
2023/01/24 05:23:53;;;;;;;0.00;0.00;;;;;;;10.55;46.87;96074.28;4982448;28;20191;-66
2023/01/24 05:26:25;;;;;;;0.00;0.00;;;;;;;10.48;46.78;96091.94;4987592;28;20654;-67
2023/01/24 05:28:53;;;;;;;0.00;0.00;;;;;;;10.43;47.52;96108.34;4991949;28;20199;-65
2023/01/24 05:31:22;;;;;;;0.00;0.00;;;;;;;10.36;47.32;96107.66;4987043;28;20317;-62
2023/01/24 05:33:49;;;;;;;0.00;0.00;;;;;;;10.58;47.17;96126.28;4987740;28;20222;-64
2023/01/24 05:36:18;;;;;;;0.38;0.35;;;;;;;10.19;47.75;96122.41;4973897;28;20713;-65
2023/01/24 05:38:47;;;;;;;0.55;0.38;;;;;;;10.47;48.00;96120.00;4987758;28;20203;-70
2023/01/24 05:41:19;;;;;;;0.22;0.22;;;;;;;10.53;47.32;96124.31;4987027;28;20234;-61
2023/01/24 05:43:49;;;;;;;0.17;0.17;;;;;;;10.36;47.83;96123.38;4987528;28;20217;-62
2023/01/24 05:46:21;;;;;;;0.00;0.00;;;;;;;9.89;48.17;96111.13;4987125;28;20240;-66
2023/01/24 05:48:58;;;;;;;0.00;0.00;;;;;;;10.20;47.82;96134.47;4987555;28;20228;-64
2023/01/24 05:51:25;;;;;;;0.00;0.00;;;;;;;9.88;48.17;96140.91;4984760;28;20255;-67
2023/01/24 05:53:53;;;;;;;0.00;0.00;;;;;;;9.87;48.55;96139.31;4985346;28;20222;-64
2023/01/24 05:56:40;;;;;;;0.00;0.00;;;;;;;9.80;48.79;96146.44;4986285;28;20207;-65
2023/01/24 05:59:07;;;;;;;0.00;0.00;;;;;;;10.09;48.03;96143.88;4985890;28;20293;-66
2023/01/24 06:01:34;;;;;;;0.10;0.10;;;;;;;10.23;47.72;96139.28;4984851;28;20205;-65
2023/01/24 06:04:01;;;;;;;0.10;0.10;;;;;;;10.48;47.37;96152.22;4986494;28;20214;-68
2023/01/24 06:06:29;;;;;;;0.50;0.50;;;;;;;10.67;47.07;96151.13;4991403;28;20272;-66
2023/01/24 06:08:56;;;;;;;2.03;1.92;;;;;;;10.70;46.78;96142.81;4992124;28;20198;-66
2023/01/24 06:11:27;;;;;;;1.55;0.82;;;;;;;10.43;46.55;96134.56;4990576;28;20276;-65
2023/01/24 06:14:14;;;;;;;0.00;0.00;;;;;;;10.45;46.94;96163.97;4990238;28;20222;-65
2023/01/24 06:16:47;;;;;;;0.08;0.08;;;;;;;10.70;46.37;96161.97;4990606;28;20229;-64
2023/01/24 06:19:15;;;;;;;0.70;0.70;;;;;;;10.33;46.95;96157.09;4991157;28;20211;-66
2023/01/24 06:21:45;;;;;;;0.70;0.52;;;;;;;10.44;47.20;96164.97;4991893;28;20198;-67
2023/01/24 06:24:22;;;;;;;0.52;0.52;;;;;;;10.56;47.17;96165.00;4990885;28;20266;-68
2023/01/24 06:26:58;;;;;;;1.58;1.10;;;;;;;10.38;46.85;96171.13;4990528;28;20203;-69
2023/01/24 06:29:25;;;;;;;0.55;0.55;;;;;;;10.53;46.21;96168.88;4992205;28;20407;-64
2023/01/24 06:32:02;;;;;;;0.05;0.05;;;;;;;10.32;46.65;96153.66;4989835;28;20825;-65
2023/01/24 06:34:59;;;;;;;0.00;0.00;;;;;;;10.42;46.84;96184.56;4991966;28;20226;-66
2023/01/24 06:37:38;;;;;;;0.20;0.10;;;;;;;10.55;46.58;96185.16;4992278;28;20211;-66
2023/01/24 06:40:09;;;;;;;0.22;0.22;;;;;;;10.29;46.75;96185.56;4990136;28;20198;-64
2023/01/24 06:42:36;;;;;;;0.63;0.63;;;;;;;10.32;46.26;96195.59;4991550;28;20654;-66
2023/01/24 06:45:04;;;;;;;0.00;0.00;;;;;;;10.26;46.73;96196.47;4991170;28;20191;-66
2023/01/24 06:47:31;;;;;;;0.28;0.28;;;;;;;10.15;46.44;96194.59;4991677;28;20195;-66
2023/01/24 06:49:59;;;;;;;0.00;0.00;;;;;;;9.93;47.44;96196.03;4987218;28;20585;-66
2023/01/24 06:52:28;;;;;;;0.00;0.00;;;;;;;9.96;47.05;96195.59;4976842;28;20203;-64
2023/01/24 06:54:55;;;;;;;0.25;0.25;;;;;;;10.17;46.54;96206.44;4991399;28;20296;-65
2023/01/24 06:57:22;;;;;;;0.05;0.05;;;;;;;10.07;46.50;96200.09;4991167;28;20210;-65
2023/01/24 06:59:49;;;;;;;0.10;0.03;;;;;;;10.08;47.22;96204.31;4991344;28;20225;-66
2023/01/24 07:02:15;;;;;;;0.28;0.28;;;;;;;10.19;46.54;96200.97;4991112;28;20233;-65
2023/01/24 07:04:42;;;;;;;0.17;0.17;;;;;;;9.91;47.21;96205.91;4990875;28;20202;-65
2023/01/24 07:07:09;;;;;;;0.03;0.03;;;;;;;9.69;47.41;96210.00;4991501;28;20209;-67
2023/01/24 07:09:36;;;;;;;0.00;0.00;;;;;;;9.68;47.71;96213.63;4991220;28;20650;-66
2023/01/24 07:12:03;;;;;;;0.10;0.10;;;;;;;9.25;47.96;96202.38;4990992;28;20637;-67
2023/01/24 07:14:30;;;;;;;0.00;0.00;;;;;;;9.77;47.18;96212.31;4991148;28;20221;-65
2023/01/24 07:16:57;;;;;;;0.25;0.25;;;;;;;9.81;47.29;96213.50;4990689;28;20286;-66
2023/01/24 07:19:25;;;;;;;0.00;0.00;;;;;;;9.99;47.67;96214.28;4991396;28;20600;-66
2023/01/24 07:21:53;;;;;;;0.43;0.40;;;;;;;10.30;46.73;96213.34;4990509;28;20194;-65
2023/01/24 07:24:24;;;;;;;0.00;0.00;;;;;;;10.46;46.19;96210.09;4989530;28;20230;-66
2023/01/24 07:26:52;;;;;;;0.00;0.00;;;;;;;10.46;46.47;96217.16;4990346;28;20190;-66
2023/01/24 07:29:19;;;;;;;4.72;1.60;;;;;;;10.17;47.15;96218.75;4991425;28;20246;-67
2023/01/24 07:31:49;;;;;;;2.17;1.30;;;;;;;10.15;46.77;96218.16;4990039;28;20258;-66
2023/01/24 07:34:17;;;;;;;0.00;0.00;;;;;;;10.28;46.55;96215.38;4991110;28;20678;-65
2023/01/24 07:36:45;;;;;;;0.17;0.17;;;;;;;9.96;46.87;96221.78;4990330;28;20253;-67
2023/01/24 07:39:13;;;;;;;0.25;0.25;;;;;;;10.14;47.26;96219.19;4990952;28;20199;-65
2023/01/24 07:41:42;;;;;;;0.17;0.17;;;;;;;10.08;47.13;96222.66;4990578;28;20202;-66
2023/01/24 07:44:11;;;;;;;0.10;0.10;;;;;;;10.10;47.57;96233.75;4989835;28;20206;-65
2023/01/24 07:46:38;;;;;;;0.00;0.00;;;;;;;10.05;47.81;96236.97;4983106;28;20210;-65
2023/01/24 07:49:05;;;;;;;0.00;0.00;;;;;;;9.98;47.43;96225.00;4972875;28;20202;-67
2023/01/24 07:51:32;;;;;;;0.00;0.00;;;;;;;9.97;47.48;96231.22;4990382;28;20238;-64
2023/01/24 07:53:59;;;;;;;0.28;0.28;;;;;;;10.14;47.25;96245.38;4990489;28;20752;-64
2023/01/24 07:56:26;;;;;;;0.30;0.30;;;;;;;9.92;48.22;96231.91;4990054;28;20198;-65
2023/01/24 07:58:53;;;;;;;0.10;0.10;;;;;;;9.53;49.03;96252.44;4989977;28;20203;-65
2023/01/24 08:01:23;;;;;;;0.55;0.45;;;;;;;9.90;48.20;96254.06;4990355;28;20194;-65
2023/01/24 08:03:53;;;;;;;0.68;0.20;;;;;;;10.15;47.93;96258.25;4990138;28;20210;-66
2023/01/24 08:06:22;;;;;;;0.30;0.30;;;;;;;10.02;49.16;96253.13;4990244;28;20225;-64
2023/01/24 08:08:48;;;;;;;2.10;1.38;;;;;;;10.10;49.53;96254.69;4989888;28;20643;-66
2023/01/24 08:11:17;;;;;;;0.00;0.00;;;;;;;9.81;48.48;96268.47;4990047;28;20202;-66
2023/01/24 08:13:44;;;;;;;0.10;0.10;;;;;;;10.09;47.63;96253.88;4989906;28;20229;-65
2023/01/24 08:16:12;;;;;;;0.73;0.73;;;;;;;10.20;47.83;96260.19;4989852;28;20289;-65
2023/01/24 08:18:40;;;;;;;1.65;0.57;;;;;;;10.04;48.41;96256.34;4989809;28;20746;-66
2023/01/24 08:21:07;;;;;;;0.00;0.00;;;;;;;10.05;48.08;96252.69;4990135;28;20194;-65
2023/01/24 08:23:34;;;;;;;0.10;0.10;;;;;;;10.02;47.35;96252.31;4989487;28;20188;-66
2023/01/24 08:26:05;;;;;;;9.05;1.75;;;;;;;9.96;48.18;96264.47;4989641;28;20220;-65
2023/01/24 08:28:33;;;;;;;0.22;0.22;;;;;;;9.89;47.60;96262.97;4989258;28;20191;-65
2023/01/24 08:31:00;;;;;;;0.00;0.00;;;;;;;9.76;48.31;96263.88;4989656;28;20277;-65
2023/01/24 08:33:27;;;;;;;0.00;0.00;;;;;;;9.89;47.85;96270.81;4989801;28;20199;-65
2023/01/24 08:35:54;;;;;;;0.10;0.10;;;;;;;9.72;48.54;96277.63;4989681;28;20218;-66
2023/01/24 08:38:21;;;;;;;0.00;0.00;;;;;;;9.78;48.69;96266.28;4989849;28;20206;-64
2023/01/24 08:40:47;;;;;;;0.00;0.00;;;;;;;9.65;48.65;96271.66;4989540;28;20226;-65
2023/01/24 08:43:17;;;;;;;0.00;0.00;;;;;;;9.46;49.59;96273.44;4989584;28;20210;-65
2023/01/24 08:45:44;;;;;;;0.00;0.00;;;;;;;9.59;49.29;96273.31;4989329;28;20678;-66
2023/01/24 08:48:11;;;;;;;0.43;0.43;;;;;;;9.64;48.82;96280.50;4989332;28;20628;-66
2023/01/24 08:50:38;;;;;;;0.00;0.00;;;;;;;9.86;48.56;96269.41;4989367;28;20735;-64
2023/01/24 08:53:05;;;;;;;0.13;0.13;;;;;;;10.01;48.39;96275.13;4989413;28;20265;-65
2023/01/24 08:55:32;;;;;;;0.00;0.00;;;;;;;9.94;49.14;96273.56;4989029;28;20301;-65
2023/01/24 08:58:03;;;;;;;0.00;0.00;;;;;;;10.12;49.44;96274.41;4989851;28;20199;-66
2023/01/24 09:00:31;;;;;;;0.00;0.00;;;;;;;9.94;49.16;96274.38;4988807;28;20204;-66
2023/01/24 09:03:00;;;;;;;0.10;0.10;;;;;;;9.84;48.95;96273.25;4989273;28;20194;-64
2023/01/24 09:05:28;;;;;;;0.00;0.00;;;;;;;9.73;48.48;96273.97;4989147;28;20198;-65
2023/01/24 09:07:56;;;;;;;0.28;0.28;;;;;;;9.94;48.87;96260.47;4989317;28;20202;-65
2023/01/24 09:10:23;;;;;;;0.20;0.20;;;;;;;10.19;48.14;96264.66;4988759;28;20256;-65
2023/01/24 09:12:50;;;;;;;0.10;0.10;;;;;;;10.12;48.30;96263.13;4989157;28;20234;-66
2023/01/24 09:15:35;;;;;;;0.00;0.00;;;;;;;10.07;48.72;96268.19;4988815;28;20710;-67
2023/01/24 09:18:02;;;;;;;0.10;0.10;;;;;;;9.75;48.81;96266.72;4988891;28;20629;-65
2023/01/24 09:20:29;;;;;;;0.03;0.03;;;;;;;9.77;49.33;96269.91;4988689;28;20256;-66
2023/01/24 09:22:56;;;;;;;0.43;0.43;;;;;;;9.95;48.36;96262.06;4989322;28;20230;-66
2023/01/24 09:25:23;;;;;;;0.00;0.00;;;;;;;9.92;47.86;96260.72;4988826;28;20289;-66
2023/01/24 09:27:55;;;;;;;0.00;0.00;;;;;;;9.49;48.48;96261.75;4988997;28;20598;-65
2023/01/24 09:30:22;;;;;;;0.00;0.00;;;;;;;9.76;49.39;96263.09;4988864;28;20297;-65
2023/01/24 09:32:50;;;;;;;0.30;0.30;;;;;;;10.15;48.96;96262.69;4988799;28;20222;-66
2023/01/24 09:35:17;;;;;;;0.13;0.08;;;;;;;9.97;48.88;96260.84;4976589;28;20214;-65
2023/01/24 09:37:44;;;;;;;0.15;0.15;;;;;;;10.59;47.72;96249.25;4988965;28;20269;-65
2023/01/24 09:40:26;;;;;;;0.00;0.00;;;;;;;10.72;47.93;96249.06;4989302;28;20285;-65
2023/01/24 09:43:21;;;;;;;1.55;0.35;;;;;;;10.60;47.90;96255.28;4992246;28;20209;-67
2023/01/24 09:46:06;;;;;;;0.20;0.20;;;;;;;10.76;47.75;96244.16;4992413;28;20721;-66
2023/01/24 09:48:33;;;;;;;0.00;0.00;;;;;;;10.29;48.55;96253.66;4992995;28;20205;-65
2023/01/24 09:51:06;;;;;;;0.20;0.20;;;;;;;10.61;48.13;96241.94;4992458;28;20290;-66
2023/01/24 09:53:45;;;;;;;0.00;0.00;;;;;;;10.19;48.56;96253.38;4992528;28;20681;-65
2023/01/24 09:56:26;;;;;;;0.10;0.10;;;;;;;10.26;48.58;96259.31;4992452;28;20316;-65
2023/01/24 09:59:10;;;;;;;0.00;0.00;;;;;;;10.31;48.44;96250.81;4992800;28;20195;-65
2023/01/24 10:01:40;;;;;;;0.65;0.55;;;;;;;10.19;48.23;96227.19;4992421;28;20205;-66
2023/01/24 10:04:27;;;;;;;0.20;0.20;;;;;;;10.62;47.91;96243.53;4992791;28;20223;-64
2023/01/24 10:07:18;;;;;;;0.00;0.00;;;;;;;9.91;48.38;96245.19;4992503;28;20210;-65
2023/01/24 10:10:26;;;;;;;0.00;0.00;;;;;;;10.38;47.85;96247.09;4992811;28;20338;-66
2023/01/24 10:13:08;;;;;;;0.20;0.20;;;;;;;10.14;48.03;96248.00;4980384;28;20211;-67
2023/01/24 10:15:37;;;;;;;0.05;0.05;;;;;;;10.28;47.87;96241.56;4991753;28;20743;-66
2023/01/24 10:18:13;;;;;;;0.00;0.00;;;;;;;10.19;48.36;96242.91;4992622;28;20293;-66
2023/01/24 10:20:43;;;;;;;0.00;0.00;;;;;;;10.51;47.75;96236.44;4991629;28;20225;-65
2023/01/24 10:23:14;;;;;;;0.10;0.10;;;;;;;10.08;47.70;96233.94;4992631;28;20207;-65
2023/01/24 10:26:04;;;;;;;0.00;0.00;;;;;;;10.14;47.50;96242.75;4979625;28;20213;-65
2023/01/24 10:28:38;;;;;;;0.00;0.00;;;;;;;10.37;47.44;96235.00;4992355;28;20213;-65
2023/01/24 10:31:12;;;;;;;0.00;0.00;;;;;;;10.17;47.98;96227.41;4991981;28;20229;-65
2023/01/24 10:33:49;;;;;;;0.10;0.10;;;;;;;10.05;48.16;96220.47;4992371;28;20199;-65
2023/01/24 10:36:42;;;;;;;0.00;0.00;;;;;;;9.79;48.33;96210.28;4991534;28;20675;-65
2023/01/24 10:39:10;;;;;;;0.00;0.00;;;;;;;9.78;48.14;96224.41;4992155;28;20202;-65
2023/01/24 10:41:37;;;;;;;0.00;0.00;;;;;;;10.03;47.52;96212.84;4991149;28;20280;-67
2023/01/24 10:44:33;;;;;;;0.22;0.22;;;;;;;9.96;48.21;96224.41;4992210;28;20206;-65
2023/01/24 10:47:26;;;;;;;0.10;0.10;;;;;;;9.95;48.21;96214.94;4981508;28;20633;-66
2023/01/24 10:49:58;;;;;;;0.75;0.25;;;;;;;10.33;48.19;96220.75;4992113;28;20214;-64
2023/01/24 10:52:25;;;;;;;0.00;0.00;;;;;;;9.96;48.39;96216.56;4991442;28;20232;-65
2023/01/24 10:54:58;;;;;;;0.00;0.00;;;;;;;9.87;48.20;96212.63;4991240;28;20222;-64
2023/01/24 10:57:42;;;;;;;0.00;0.00;;;;;;;9.58;49.07;96203.66;4991684;28;20198;-65
2023/01/24 11:00:27;;;;;;;0.20;0.20;;;;;;;10.04;47.72;96218.84;4991715;28;20273;-67
2023/01/24 11:03:03;;;;;;;0.00;0.00;;;;;;;9.91;47.86;96203.31;4991350;28;20256;-64
2023/01/24 11:05:43;;;;;;;0.00;0.00;;;;;;;9.88;48.00;96208.97;4990956;28;20206;-65
2023/01/24 11:08:20;;;;;;;0.00;0.00;;;;;;;9.86;48.21;96205.78;4991388;28;20210;-66
2023/01/24 11:10:52;;;;;;;0.00;0.00;;;;;;;9.95;47.74;96204.47;4990956;28;20195;-65
2023/01/24 11:13:32;;;;;;;0.00;0.00;;;;;;;10.39;47.39;96201.53;4990415;28;20268;-66
2023/01/24 11:16:21;;;;;;;0.10;0.10;;;;;;;10.09;47.68;96190.25;4990977;28;20224;-65
2023/01/24 11:18:52;;;;;;;0.00;0.00;;;;;;;9.66;48.90;96210.44;4977530;28;20198;-65
2023/01/24 11:21:20;;;;;;;0.00;0.00;;;;;;;9.74;48.67;96204.91;4989534;28;20203;-64
2023/01/24 11:24:09;;;;;;;0.00;0.00;;;;;;;10.11;47.97;96196.03;4991324;28;20217;-66
2023/01/24 11:26:51;;;;;;;3.22;1.55;;;;;;;9.79;48.71;96200.63;4990660;28;20286;-66
2023/01/24 11:29:18;;;;;;;0.17;0.17;;;;;;;10.14;47.49;96188.53;4990879;28;20203;-66
2023/01/24 11:31:50;;;;;;;0.10;0.10;;;;;;;9.91;47.94;96185.78;4990099;28;20262;-65
2023/01/24 11:34:43;;;;;;;0.00;0.00;;;;;;;9.75;48.74;96190.81;4991108;28;20254;-65
2023/01/24 11:37:37;;;;;;;0.00;0.00;;;;;;;10.05;48.23;96183.81;4991242;28;20203;-65
2023/01/24 11:40:39;;;;;;;0.00;0.00;;;;;;;9.96;48.21;96182.50;4989124;28;20208;-65
2023/01/24 11:43:27;;;;;;;0.10;0.10;;;;;;;10.06;48.58;96188.03;4988544;28;20257;-66
2023/01/24 11:46:21;;;;;;;0.00;0.00;;;;;;;10.21;47.85;96180.63;4990100;28;20195;-66
2023/01/24 11:49:07;;;;;;;0.00;0.00;;;;;;;10.18;48.07;96184.47;4991109;28;20298;-64
2023/01/24 11:51:39;;;;;;;0.00;0.00;;;;;;;10.05;47.94;96175.97;4990267;28;20586;-66
2023/01/24 11:54:24;;;;;;;0.00;0.00;;;;;;;9.92;48.12;96174.31;4990127;28;20317;-65
2023/01/24 11:57:02;;;;;;;0.90;0.57;;;;;;;9.71;48.05;96171.31;4989629;28;20222;-65
2023/01/24 11:59:56;;;;;;;0.10;0.10;;;;;;;9.63;48.75;96176.84;4990246;28;20681;-64
2023/01/24 12:02:28;;;;;;;0.00;0.00;;;;;;;9.62;49.12;96172.63;4971981;28;20199;-66
2023/01/24 12:05:25;;;;;;;1.45;0.85;;;;;;;9.58;49.31;96172.25;4981363;28;20207;-68
2023/01/24 12:08:04;;;;;;;0.10;0.10;;;;;;;9.61;49.36;96176.25;4990364;28;20286;-65
2023/01/24 12:10:48;;;;;;;0.00;0.00;;;;;;;9.79;48.67;96184.94;4989744;28;20288;-64
2023/01/24 12:13:40;;;;;;;0.00;0.00;;;;;;;9.75;49.17;96188.19;4975400;28;20633;-65
2023/01/24 12:16:28;;;;;;;0.55;0.38;;;;;;;9.92;48.75;96189.19;4989274;28;20330;-65
2023/01/24 12:19:32;;;;;;;0.00;0.00;;;;;;;9.87;48.75;96186.44;4990081;28;20692;-64
2023/01/24 12:22:00;;;;;;;0.13;0.13;;;;;;;9.68;48.27;96190.06;4989775;28;20272;-65
2023/01/24 12:24:32;;;;;;;1.90;0.82;;;;;;;9.91;47.96;96182.34;4989739;28;20200;-65
2023/01/24 12:27:04;;;;;;;0.88;0.55;;;;;;;10.01;47.69;96186.06;4989137;28;20197;-65
2023/01/24 12:29:36;;;;;;;0.30;0.30;;;;;;;9.86;47.99;96184.84;4988344;28;20210;-67
2023/01/24 12:32:26;;;;;;;0.13;0.13;;;;;;;9.73;48.00;96190.22;4989319;28;20293;-64
2023/01/24 12:34:53;;;;;;;0.00;0.00;;;;;;;9.84;47.93;96192.91;4988707;28;20206;-65
2023/01/24 12:37:35;;;;;;;0.00;0.00;;;;;;;9.82;47.52;96179.25;4989962;28;20198;-66